Flight Track Log - Related Links

Times and Time Zones

All times are in EDT time to prevent confusion due to time zone crossing. See the N663JM flight status page for this flight to view local times or setup timezone preferences in your user account.

Time Position Orientation Groundspeed Altitude Reporting Facility
EDT Latitude Longitude Course Direction KTS MPH feet Rate Location/Type
Thu 04:33:00 PM 34.5313 -81.7329 169° South  Level Estimated
Thu 04:34:00 PM 34.4823 -81.7219 170° South  Level Estimated
Thu 04:35:00 PM 34.4333 -81.7110 170° South  Level Estimated
Thu 04:36:00 PM 34.3843 -81.7001 170° South  Level Estimated
Thu 04:37:00 PM 34.3353 -81.6893 170° South  Level Estimated
Thu 04:38:00 PM 34.2863 -81.6784 170° South  Level Estimated
Thu 04:39:00 PM 34.2373 -81.6675 170° South  Level Estimated
Thu 04:40:00 PM 34.1882 -81.6567 170° South  Level Estimated
Thu 04:41:00 PM 34.1392 -81.6458 170° South  Level Estimated
Thu 04:42:00 PM 34.0901 -81.6350 170° South  Level Estimated
Thu 04:43:00 PM 34.0410 -81.6242 170° South  Level Estimated
Thu 04:44:00 PM 33.9920 -81.6134 170° South  Level Estimated
Thu 04:45:00 PM 33.9429 -81.6026 170° South  Level Estimated
Thu 04:46:00 PM 33.8938 -81.5918 170° South  Level Estimated
Thu 04:47:00 PM 33.8447 -81.5810 170° South  Level Estimated
Thu 04:48:00 PM 33.7957 -81.5703 170° South  Level Estimated
Thu 04:49:00 PM 33.7466 -81.5595 170° South  Level Estimated
Thu 04:50:00 PM 33.6975 -81.5488 170° South  Level Estimated
Thu 04:51:00 PM 33.6485 -81.5381 170° South  Level Estimated
Thu 04:52:00 PM 33.5994 -81.5274 170° South  Level Estimated
Thu 04:53:00 PM 33.5503 -81.5167 170° South  Level Estimated
Thu 04:54:00 PM 33.5012 -81.5060 170° South  Level Estimated
Thu 04:55:00 PM 33.4522 -81.4953 170° South  Level Estimated
Thu 04:56:00 PM 33.4031 -81.4847 170° South  Level Estimated
Thu 04:57:00 PM 33.3546 -81.4742 170° South  Level Estimated
Thu 04:58:00 PM 33.3061 -81.4637 170° South  Level Estimated
Thu 04:59:00 PM 33.2576 -81.4531 170° South  Level Estimated
Thu 04:59:11 PM 33.2264 -82.2856 170° South 185 213 9,000  Level Atlanta Center
Thu 05:00:00 PM 33.2091 -81.4427 170° South  Level Estimated
Thu 05:00:11 PM 33.1761 -82.2717 167° South 195 224 9,000  Level Atlanta Center
Thu 05:01:00 PM 33.1606 -81.4322 170° South  Level Estimated
Thu 05:01:11 PM 33.1261 -82.2653 174° South 195 224 9,000  Level Atlanta Center
Thu 05:02:00 PM 33.1121 -81.4217 170° South  Level Estimated
Thu 05:02:11 PM 33.0758 -82.2589 174° South 190 219 9,000  Level Atlanta Center
Thu 05:03:00 PM 33.0636 -81.4113 170° South  Level Estimated
Thu 05:03:11 PM 33.0214 -82.2550 177° South 190 219 9,000  Level Atlanta Center
Thu 05:04:00 PM 33.0151 -81.4008 170° South  Level Estimated
Thu 05:04:12 PM 32.9733 -82.2486 174° South 190 219 9,000  Level Atlanta Center
Thu 05:05:11 PM 32.9233 -82.2447 176° South 185 213 9,000  Level Atlanta Center
Thu 05:06:11 PM 32.8689 -82.2408 177° South 185 213 9,000  Level Atlanta Center
Thu 05:07:11 PM 32.8189 -82.2369 176° South 185 213 9,000  Level Atlanta Center
Thu 05:08:11 PM 32.7686 -82.2306 174° South 185 213 9,000  Level Atlanta Center
Thu 05:09:11 PM 32.7142 -82.2242 174° South 185 213 9,000  Level Atlanta Center
Thu 05:10:11 PM 32.6642 -82.2203 176° South 185 213 9,000  Level Atlanta Center
Thu 05:11:11 PM 32.6139 -82.2092 169° South 185 213 9,000  Level Atlanta Center
Thu 05:12:11 PM 32.5633 -82.1928 165° South 185 213 9,000  Level Atlanta Center
Thu 05:13:11 PM 32.5153 -82.1767 164° South 185 213 9,000  Level Atlanta Center
Thu 05:15:02 PM 32.4294 -82.1467 164° South 189 217 9,000  Level Jacksonville Center
Thu 05:16:02 PM 32.3792 -82.1300 164° South 189 217 9,000  Level Jacksonville Center
Thu 05:17:02 PM 32.3250 -82.1133 165° South 183 211 9,000 200 Level Jacksonville Center
Thu 05:18:02 PM 32.2789 -82.0964 163° South 178 205 9,400 450 Climbing Jacksonville Center
Thu 05:19:02 PM 32.2369 -82.0819 164° South 172 198 9,900 350 Climbing Jacksonville Center
Thu 05:20:02 PM 32.2014 -82.0700 164° South 158 182 10,100 100 Climbing Jacksonville Center
Thu 05:21:02 PM 32.1472 -82.0633 174° South 169 194 10,100  Level Jacksonville Center
Thu 05:22:02 PM 32.0992 -82.0636 180° South 176 203 10,100  Level Jacksonville Center
Thu 05:23:02 PM 32.0553 -82.0592 175° South 176 203 10,100 -50 Level Jacksonville Center
Thu 05:24:02 PM 32.0050 -82.0572 178° South 176 203 10,000 -50 Descending Jacksonville Center
Thu 05:25:02 PM 31.9550 -82.0528 176° South 176 203 10,000  Level Jacksonville Center
Thu 05:26:02 PM 31.9006 -82.0483 176° South 176 203 10,000  Level Jacksonville Center
Thu 05:27:02 PM 31.8544 -82.0267 158° South 181 208 10,000  Level Jacksonville Center
Thu 05:28:02 PM 31.8086 -82.0075 160° South 181 208 10,000  Level Jacksonville Center
Thu 05:29:02 PM 31.7644 -81.9908 162° South 181 208 10,000  Level Jacksonville Center
Thu 05:30:02 PM 31.7122 -81.9742 165° South 181 208 10,000  Level Jacksonville Center
Thu 05:31:02 PM 31.6642 -81.9578 164° South 181 208 10,000  Level Jacksonville Center
Thu 05:32:02 PM 31.6158 -81.9386 161° South 181 208 10,000  Level Jacksonville Center
Thu 05:33:02 PM 31.5719 -81.9244 165° South 181 208 10,000  Level Jacksonville Center
Thu 05:34:02 PM 31.5239 -81.9056 161° South 181 208 10,000  Level Jacksonville Center
Thu 05:35:02 PM 31.4736 -81.8867 162° South 181 208 10,000  Level Jacksonville Center
Thu 05:36:02 PM 31.4294 -81.8553 149° Southeast 181 208 10,000  Level Jacksonville Center
Thu 05:37:02 PM 31.3917 -81.8242 145° Southeast 186 214 10,000  Level Jacksonville Center
Thu 05:38:02 PM 31.3494 -81.7931 148° Southeast 186 214 10,000  Level Jacksonville Center
Thu 05:39:02 PM 31.3011 -81.7547 146° Southeast 186 214 10,000 50 Level Jacksonville Center
Thu 05:40:02 PM 31.2572 -81.7236 149° Southeast 186 214 10,100  Climbing Jacksonville Center
Thu 05:41:02 PM 31.2169 -81.6828 139° Southeast 186 214 10,000 -50 Descending Jacksonville Center
Thu 05:42:02 PM 31.1728 -81.6469 145° Southeast 191 220 10,000 50 Level Jacksonville Center
Thu 05:43:02 PM 31.1267 -81.6233 156° South 191 220 10,100  Climbing Jacksonville Center
Thu 05:44:02 PM 31.0786 -81.6094 166° South 191 220 10,000 -50 Descending Jacksonville Center
Thu 05:45:02 PM 31.0261 -81.5931 165° South 191 220 10,000  Level Jacksonville Center
Thu 05:45:58 PM 30.9781 -81.5792 166° South 191 220 10,000  Level Jacksonville Center
Thu 05:46:58 PM 30.9278 -81.5653 167° South 184 212 10,000  Level Jacksonville Center
Thu 05:47:59 PM 30.8775 -81.5517 167° South 184 212 10,000  Level Jacksonville Center
Thu 05:49:00 PM 30.8272 -81.5378 167° South 185 213 10,000  Level Jacksonville Center
Thu 05:50:01 PM 30.7769 -81.5239 167° South 182 209 10,000  Level Jacksonville Center
Thu 05:51:02 PM 30.7289 -81.5103 166° South 181 208 10,000  Level Jacksonville Center
Thu 05:51:02 PM 30.7289 -81.5103 166° South 179 206 10,000  Level Jacksonville Center
Thu 05:52:02 PM 30.6786 -81.4964 167° South 186 214 10,000  Level Jacksonville Center
Thu 05:53:02 PM 30.6283 -81.4828 167° South 186 214 10,000  Level Jacksonville Center
Thu 05:54:05 PM 30.5758 -81.4667 165° South 187 215 10,000  Level Jacksonville Center
Thu 05:55:05 PM 30.5236 -81.4528 167° South 189 217 10,000  Level Jacksonville Center
Thu 05:56:06 PM 30.4733 -81.4367 165° South 186 214 10,000  Level Jacksonville Center
Thu 05:57:07 PM 30.4208 -81.4231 167° South 186 214 10,000  Level Jacksonville Center
Thu 05:58:14 PM 30.3622 -81.4072 167° South 188 216 10,000  Level Jacksonville Center
Thu 05:59:15 PM 30.3100 -81.3958 169° South 184 212 10,000  Level Jacksonville Center
Thu 06:00:16 PM 30.2639 -81.3775 161° South 185 213 10,000  Level Jacksonville Center
Thu 06:01:11 PM 30.2156 -81.3661 168° South 182 209 10,000  Level Jacksonville Center
Thu 06:02:12 PM 30.1675 -81.3550 169° South 180 207 10,000  Level Jacksonville Center
Thu 06:03:13 PM 30.1172 -81.3414 167° South 182 209 10,000  Level Jacksonville Center
Thu 06:04:13 PM 30.0669 -81.3253 164° South 182 209 10,000  Level Jacksonville Center
Thu 06:05:14 PM 30.0167 -81.3117 167° South 183 211 10,000  Level Jacksonville Center
Thu 06:05:51 PM 29.9872 -81.3028 165° South 184 212 10,000  Level Jacksonville Center
Thu 06:06:33 PM 29.9539 -81.2936 167° South 184 212 10,000  Level Jacksonville Center
Thu 06:07:34 PM 29.8994 -81.2800 168° South 185 213 10,000  Level Jacksonville Center
Thu 06:08:34 PM 29.8489 -81.2642 165° South 181 208 10,000  Level Jacksonville Center
Thu 06:09:35 PM 29.8008 -81.2531 169° South 182 209 10,000  Level Jacksonville Center
Thu 06:10:36 PM 29.7506 -81.2394 167° South 181 208 10,000  Level Jacksonville Center
Thu 06:11:36 PM 29.7025 -81.2261 166° South 179 206 10,000  Level Jacksonville Center
Thu 06:12:37 PM 29.6522 -81.2150 169° South 179 206 10,000 52 Level Jacksonville Center
Thu 06:13:32 PM 29.6103 -81.2014 164° South 181 208 10,100  Climbing Jacksonville Center
Thu 06:14:32 PM 29.5600 -81.1856 165° South 183 211 10,000 -50 Descending Jacksonville Center
Thu 06:15:33 PM 29.5117 -81.1744 169° South 181 208 10,000  Level Jacksonville Center
Thu 06:16:34 PM 29.4614 -81.1608 167° South 179 206 10,000  Level Jacksonville Center
Thu 06:17:34 PM 29.4092 -81.1453 165° South 177 204 10,000  Level Jacksonville Center
Thu 06:19:55 PM 29.3000 -81.1167 167° South 180 207 10,000  Level Orlando TRACON
Thu 06:20:55 PM 29.2500 -81.1000 164° South 180 207 10,000  Level Orlando TRACON
Thu 06:21:55 PM 29.2000 -81.0833 164° South 178 205 10,000  Level Orlando TRACON
Thu 06:22:55 PM 29.1500 -81.0667 164° South 181 208 10,000  Level Orlando TRACON
Thu 06:23:55 PM 29.1167 -81.0333 139° Southeast 176 203 10,000  Level Orlando TRACON
Thu 06:24:56 PM 29.0667 -81.0167 164° South 176 203 10,000 50 Level Orlando TRACON
Thu 06:25:56 PM 29.0167 -81.0000 164° South 181 208 10,100  Climbing Orlando TRACON
Thu 06:26:56 PM 28.9667 -80.9833 164° South 181 208 10,000 -50 Descending Orlando TRACON
Thu 06:27:56 PM 28.9167 -80.9667 164° South 181 208 10,000  Level Orlando TRACON
Thu 06:29:02 PM 28.8667 -80.9333 150° Southeast 179 206 10,000  Level Orlando TRACON
Thu 06:30:02 PM 28.8333 -80.9167 156° South 179 206 10,000  Level Orlando TRACON
Thu 06:31:02 PM 28.7833 -80.9000 164° South 179 206 10,000  Level Orlando TRACON
Thu 06:31:50 PM 28.7333 -80.8833 164° South 177 204 10,000  Level Orlando TRACON
Thu 06:32:50 PM 28.7000 -80.8667 156° South 171 197 10,000  Level Orlando TRACON
Thu 06:33:50 PM 28.6500 -80.8500 164° South 167 192 10,000  Level Orlando TRACON
Thu 06:34:45 PM 28.6167 -80.8333 156° South 168 193 10,000  Level Orlando TRACON
Thu 06:35:45 PM 28.5667 -80.8167 164° South 170 196 10,000  Level Orlando TRACON
Thu 06:36:45 PM 28.5167 -80.8000 164° South 171 197 10,000  Level Orlando TRACON
Thu 06:37:45 PM 28.4833 -80.7833 156° South 170 196 10,000  Level Orlando TRACON
Thu 06:38:45 PM 28.4333 -80.7667 164° South 171 197 10,000  Level Orlando TRACON
Thu 06:39:45 PM 28.3833 -80.7500 164° South 173 199 10,000  Level Orlando TRACON
Thu 06:40:45 PM 28.3333 -80.7333 164° South 173 199 10,000  Level Orlando TRACON
Thu 06:42:18 PM 28.2700 -80.7036 158° South 177 204 10,000  Level Miami Center
Thu 06:43:18 PM 28.2331 -80.6836 155° Southeast 177 204 10,000  Level Miami Center
Thu 06:44:18 PM 28.1878 -80.6586 154° Southeast 177 204 10,000  Level Miami Center
Thu 06:45:18 PM 28.1406 -80.6311 153° Southeast 172 198 10,000  Level Miami Center
Thu 06:46:18 PM 28.0972 -80.6083 155° Southeast 172 198 10,000  Level Miami Center
Thu 06:47:18 PM 28.0519 -80.5833 154° Southeast 172 198 10,000 50 Level Miami Center
Thu 06:48:18 PM 28.0150 -80.5611 152° Southeast 172 198 10,100  Climbing Miami Center
Thu 06:49:18 PM 27.9697 -80.5361 154° Southeast 172 198 10,000 -300 Descending Miami Center
Thu 06:50:18 PM 27.9203 -80.5061 152° Southeast 177 204 9,500 -500 Descending Miami Center
Thu 06:51:18 PM 27.8689 -80.4811 157° South 182 209 9,000 -450 Descending Miami Center
Thu 06:52:18 PM 27.8236 -80.4539 152° Southeast 187 215 8,600 -450 Descending Miami Center
Thu 06:53:18 PM 27.7803 -80.4289 153° Southeast 192 221 8,100 -600 Descending Miami Center
Thu 06:54:18 PM 27.7331 -80.4017 153° Southeast 192 221 7,400 -800 Descending Miami Center
Thu 06:55:18 PM 27.6794 -80.3742 156° South 197 227 6,500 -800 Descending Miami Center
Thu 06:56:18 PM 27.6300 -80.3447 152° Southeast 197 227 5,800 -700 Descending Miami Center
Thu 06:57:18 PM 27.5828 -80.3175 153° Southeast 197 227 5,100 -700 Descending Miami Center
Thu 06:58:18 PM 27.5372 -80.2925 154° Southeast 197 227 4,400 -700 Descending Miami Center

Login

Don't have an account? Register now (free) for customized features, flight alerts, and more!